Moose 62 — CGCZ — position and weather

sailwx.info

Track history (hours):
 
Tides and Currents Weather Stations Pressure Air Temp Water Temp Dewpoint Dewpoint Depression Visibility Wind Speed Wind Dir Waves Ship Positions

Moose 62

Last reported at 2014-Aug-20 12:33 UTC. Time now 2014-Aug-20 12:40 UTC.
Position N 49°33' W 124°29'.

Length 33 m; draft 2.6 m.

Type: Military. MMSI: 316013412.

Date/timePositionNaut miles runAvg speedWind from/ knotsBaromVisibWave heightAir tempDewpointWater temp
2014-Aug-20 12:33N 49°33' W 124°29'8 7.9
2014-Aug-20 11:33N 49°35' W 124°41'14 5.7
2014-Aug-20 09:09N 49°47' W 124°30'16 9.9
2014-Aug-20 07:33N 49°37' W 124°11'1010.0
2014-Aug-20 06:32N 49°29' W 124°01'9 9.1
2014-Aug-20 05:32N 49°23' W 123°51'4 4.0
2014-Aug-20 04:33N 49°21' W 123°45'0 0.3
2014-Aug-20 03:33N 49°21' W 123°46'3 3.0
2014-Aug-20 02:33N 49°20' W 123°50'1 1.3
2014-Aug-20 01:32N 49°22' W 123°49'0 0.1
2014-Aug-20 00:15N 49°22' W 123°49'913.2
2014-Aug-19 23:33N 49°20' W 123°35'1211.6
2014-Aug-19 22:34N 49°24' W 123°18'8 7.0
2014-Aug-19 21:27N 49°24' W 123°30'0 0.0
2014-Aug-19 20:30N 49°24' W 123°30'0 0.0
2014-Aug-19 19:33N 49°24' W 123°30'0 0.0
2014-Aug-19 18:30N 49°24' W 123°30'7 6.3
2014-Aug-19 17:24N 49°28' W 123°22'3 3.0
2014-Aug-19 16:31N 49°26' W 123°24'2 1.7
2014-Aug-19 15:33N 49°26' W 123°22'5 4.7
2014-Aug-19 14:33N 49°28' W 123°16'9 8.6
2014-Aug-19 13:33N 49°20' W 123°20'9 9.2
2014-Aug-19 12:33N 49°21' W 123°34'1111.5
2014-Aug-19 11:33N 49°25' W 123°50'9 2.2
2014-Aug-19 07:15N 49°30' W 124°02'8 9.7
2014-Aug-19 06:25N 49°24' W 123°53'8 9.7
2014-Aug-19 05:33N 49°18' W 123°44'1110.9
2014-Aug-19 04:30N 49°11' W 123°31'1212.4
2014-Aug-19 03:33N 49°03' W 123°18'1211.8
2014-Aug-19 02:33N 48°55' W 123°05'9 8.7
2014-Aug-19 01:33N 48°46' W 123°01'1110.7
2014-Aug-19 00:33N 48°41' W 123°15'1110.8
2014-Aug-18 23:33N 48°30' W 123°11'10 9.7
2014-Aug-18 22:33N 48°22' W 123°18'7 6.5
2014-Aug-18 21:33N 48°25' W 123°27'1 1.3
2014-Aug-18 20:33N 48°26' W 123°26'0 0.0
2014-Aug-18 19:33N 48°26' W 123°26'0 0.0
2014-Aug-18 18:33N 48°26' W 123°26'0 0.0
2014-Aug-18 17:33N 48°26' W 123°26'0 0.0
2014-Aug-18 16:33N 48°26' W 123°26'0 0.0
2014-Aug-18 15:33N 48°26' W 123°26'0 0.0
2014-Aug-18 14:33N 48°26' W 123°26'0 0.0
2014-Aug-18 13:33N 48°26' W 123°26'0 0.0
2014-Aug-18 12:33N 48°26' W 123°26'0 0.0
2014-Aug-18 11:33N 48°26' W 123°26'0 0.0
2014-Aug-18 10:33N 48°26' W 123°26'0 0.0
2014-Aug-18 09:33N 48°26' W 123°26'0 0.0
2014-Aug-18 08:33N 48°26' W 123°26'0 0.0
2014-Aug-18 07:33N 48°26' W 123°26'0 0.0
2014-Aug-18 06:33N 48°26' W 123°26'0 0.0
2014-Aug-18 05:33N 48°26' W 123°26'0 0.0
2014-Aug-18 04:33N 48°26' W 123°26'0 0.0
2014-Aug-18 03:33N 48°26' W 123°26'0 0.0
2014-Aug-18 02:33N 48°26' W 123°26'0 0.0
2014-Aug-18 01:33N 48°26' W 123°26'0 0.0
2014-Aug-18 00:33N 48°26' W 123°26'0 0.0
2014-Aug-17 18:33N 48°26' W 123°26'0 0.0
2014-Aug-17 17:33N 48°26' W 123°26'0 0.0
2014-Aug-17 16:33N 48°26' W 123°26'0 0.0
2014-Aug-17 15:33N 48°26' W 123°26'0 0.0
2014-Aug-17 14:33N 48°26' W 123°26'0 0.0
2014-Aug-17 13:33N 48°26' W 123°26'0 0.0
2014-Aug-17 12:33N 48°26' W 123°26'0 0.0
2014-Aug-17 11:33N 48°26' W 123°26'0 0.0
2014-Aug-17 10:33N 48°26' W 123°26'0 0.0
2014-Aug-17 09:33N 48°26' W 123°26'0 0.0
2014-Aug-17 08:33N 48°26' W 123°26'0 0.0
2014-Aug-17 07:33N 48°26' W 123°26'0 0.0
2014-Aug-17 06:33N 48°26' W 123°26'0 0.0
2014-Aug-17 05:33N 48°26' W 123°26'0 0.0
2014-Aug-17 04:33N 48°26' W 123°26'0 0.0
2014-Aug-17 03:33N 48°26' W 123°26'0 0.0
2014-Aug-17 02:33N 48°26' W 123°26'0 0.0
2014-Aug-17 01:33N 48°26' W 123°26'0 0.0
2014-Aug-17 00:33N 48°26' W 123°26'0 0.0
2014-Aug-16 23:33N 48°26' W 123°26'0 0.0
2014-Aug-16 22:33N 48°26' W 123°26'0 0.0
2014-Aug-16 21:33N 48°26' W 123°26'0 0.0
2014-Aug-16 20:33N 48°26' W 123°26'0 0.0
2014-Aug-16 19:33N 48°26' W 123°26'0 0.0
2014-Aug-16 18:32N 48°26' W 123°26'0 0.0
2014-Aug-16 17:33N 48°26' W 123°26'0 0.0
2014-Aug-16 16:33N 48°26' W 123°26'0 0.0
2014-Aug-16 15:33N 48°26' W 123°26'0 0.0
2014-Aug-16 14:33N 48°26' W 123°26'0 0.0
2014-Aug-16 13:33N 48°26' W 123°26'0 0.0
2014-Aug-16 12:33N 48°26' W 123°26'0 0.0
2014-Aug-16 11:33N 48°26' W 123°26'0 0.0
2014-Aug-16 10:33N 48°26' W 123°26'0 0.0
2014-Aug-16 09:33N 48°26' W 123°26'0 0.0
2014-Aug-16 08:33N 48°26' W 123°26'0 0.0
2014-Aug-16 07:33N 48°26' W 123°26'0 0.0
2014-Aug-16 06:33N 48°26' W 123°26'0 0.0
2014-Aug-16 05:33N 48°26' W 123°26'0 0.0
2014-Aug-16 04:33N 48°26' W 123°26'0 0.0
2014-Aug-16 03:33N 48°26' W 123°26'0 0.0
2014-Aug-16 02:29N 48°26' W 123°26'0 0.0
2014-Aug-16 01:33N 48°26' W 123°26'0 0.0
2014-Aug-16 00:33N 48°26' W 123°26'0 0.0
2014-Aug-15 23:33N 48°26' W 123°26'0 0.0
2014-Aug-15 22:30N 48°26' W 123°26'0 0.0
2014-Aug-15 21:33N 48°26' W 123°26'0 0.0
2014-Aug-15 20:33N 48°26' W 123°26'0 0.0
2014-Aug-15 19:33N 48°26' W 123°26'0 0.0
2014-Aug-15 18:32N 48°26' W 123°26'0 0.0
2014-Aug-15 17:33N 48°26' W 123°26'0 0.0
2014-Aug-15 16:33N 48°26' W 123°26'0 0.0
2014-Aug-15 15:33N 48°26' W 123°26'0 0.0
2014-Aug-15 14:14N 48°26' W 123°26'0 0.0
2014-Aug-15 11:32N 48°26' W 123°26'0 0.0
2014-Aug-15 10:30N 48°26' W 123°26'0 0.0
2014-Aug-15 09:33N 48°26' W 123°26'0 0.0
2014-Aug-15 08:33N 48°26' W 123°26'0 0.0
2014-Aug-15 07:33N 48°26' W 123°26'0 0.0
2014-Aug-15 06:32N 48°26' W 123°26'0 0.0
2014-Aug-15 05:31N 48°26' W 123°26'0 0.0
2014-Aug-15 04:25N 48°26' W 123°26'0 0.0
2014-Aug-15 03:32N 48°26' W 123°26'0 0.0
2014-Aug-15 02:13N 48°26' W 123°26'0 0.0
2014-Aug-15 01:33N 48°26' W 123°26'0 0.0
2014-Aug-15 00:32N 48°26' W 123°26'0 0.0
2014-Aug-14 23:31N 48°26' W 123°26'0 0.0
2014-Aug-14 22:32N 48°26' W 123°26'0 0.0
2014-Aug-14 21:33N 48°26' W 123°26'0 0.0
2014-Aug-14 20:33N 48°26' W 123°26'0 0.0
2014-Aug-14 19:33N 48°26' W 123°26'0 0.0
2014-Aug-14 18:33N 48°26' W 123°26'0 0.0
2014-Aug-14 17:32N 48°26' W 123°26'0 0.0
2014-Aug-14 16:33N 48°26' W 123°26'0 0.0
2014-Aug-14 15:21N 48°26' W 123°26'0 0.0
2014-Aug-14 12:30N 48°26' W 123°26'0 0.0
2014-Aug-14 09:33N 48°26' W 123°26'0 0.0
2014-Aug-14 08:32N 48°26' W 123°26'0 0.0
2014-Aug-14 07:33N 48°26' W 123°26'0 0.0
2014-Aug-14 06:33N 48°26' W 123°26'0 0.0
2014-Aug-14 05:32N 48°26' W 123°26'0 0.0
2014-Aug-14 02:07N 48°26' W 123°26'0 0.0
2014-Aug-14 01:33N 48°26' W 123°26'0 0.0
2014-Aug-14 00:32N 48°26' W 123°26'0 0.0
2014-Aug-13 23:24N 48°26' W 123°26'0 0.0
2014-Aug-13 21:08N 48°26' W 123°26'1 1.3
2014-Aug-13 20:33N 48°25' W 123°27'1 0.9
2014-Aug-13 19:33N 48°26' W 123°27'1 0.5
2014-Aug-13 18:32N 48°26' W 123°26'0 0.0
2014-Aug-13 17:33N 48°26' W 123°26'0 0.0
2014-Aug-13 16:33N 48°26' W 123°26'0 0.0
2014-Aug-13 15:33N 48°26' W 123°26'0 0.0
2014-Aug-13 14:33N 48°26' W 123°26'0 0.0
2014-Aug-13 13:33N 48°26' W 123°26'0 0.0
2014-Aug-13 12:33N 48°26' W 123°26'0 0.0
2014-Aug-13 11:33N 48°26' W 123°26'0 0.0
2014-Aug-13 10:33N 48°26' W 123°26'0 0.0
2014-Aug-13 09:26N 48°26' W 123°26'0 0.0
2014-Aug-13 08:33N 48°26' W 123°26'0 0.0
2014-Aug-13 07:33N 48°26' W 123°26'0 0.0
2014-Aug-13 06:33N 48°26' W 123°26'0 0.0
2014-Aug-13 05:33N 48°26' W 123°26'0 0.0
2014-Aug-13 04:32N 48°26' W 123°26'0 0.0
2014-Aug-13 03:30N 48°26' W 123°26'0 0.0
2014-Aug-13 02:32N 48°26' W 123°26'0 0.0
2014-Aug-13 01:33N 48°26' W 123°26'0 0.0
2014-Aug-13 00:33N 48°26' W 123°26'0 0.0
2014-Aug-12 22:33N 48°26' W 123°26'0 0.0
2014-Aug-12 21:33N 48°26' W 123°26'0 0.0
2014-Aug-12 20:33N 48°26' W 123°26'0 0.0
2014-Aug-12 19:33N 48°26' W 123°26'0 0.0
2014-Aug-12 18:33N 48°26' W 123°26'0 0.0
2014-Aug-12 17:33N 48°26' W 123°26'0 0.0
2014-Aug-12 16:33N 48°26' W 123°26'0 0.0
2014-Aug-12 15:33N 48°26' W 123°26'0 0.0
2014-Aug-12 14:33N 48°26' W 123°26'0 0.0
2014-Aug-12 13:33N 48°26' W 123°26'0 0.0
2014-Aug-12 12:32N 48°26' W 123°26'0 0.0
2014-Aug-12 11:13N 48°26' W 123°26'0 0.1
2014-Aug-12 10:30N 48°26' W 123°26'0 0.0
2014-Aug-12 08:32N 48°26' W 123°26'0 0.0
2014-Aug-12 07:32N 48°26' W 123°26'0 0.0
2014-Aug-12 06:33N 48°26' W 123°26'0 0.0
2014-Aug-12 05:33N 48°26' W 123°26'0 0.0
2014-Aug-12 04:33N 48°26' W 123°26'0 0.0
2014-Aug-12 03:33N 48°26' W 123°26'0 0.0
2014-Aug-12 02:33N 48°26' W 123°26'0 0.0
2014-Aug-12 01:33N 48°26' W 123°26'0 0.0
2014-Aug-12 00:33N 48°26' W 123°26'0 0.0
2014-Aug-11 23:33N 48°26' W 123°26'0 0.0
2014-Aug-11 22:33N 48°26' W 123°26'1 0.6
2014-Aug-11 21:33N 48°26' W 123°27'2 2.0
2014-Aug-11 20:33N 48°24' W 123°27'1010.3
2014-Aug-11 19:33N 48°26' W 123°12'7 6.8
2014-Aug-11 18:33N 48°22' W 123°21'5 4.6
2014-Aug-11 17:33N 48°23' W 123°27'3 2.6
2014-Aug-11 16:31N 48°26' W 123°26'0 0.0
2014-Aug-11 15:28N 48°26' W 123°26'0 0.0
2014-Aug-11 14:31N 48°26' W 123°26'0 0.0
2014-Aug-11 13:31N 48°26' W 123°26'0 0.0
2014-Aug-11 12:28N 48°26' W 123°26'0 0.0
2014-Aug-11 11:31N 48°26' W 123°26'0 0.0
2014-Aug-11 10:29N 48°26' W 123°26'0 0.0
2014-Aug-11 09:32N 48°26' W 123°26'0 0.0
2014-Aug-11 08:32N 48°26' W 123°26'0 0.0
2014-Aug-11 07:32N 48°26' W 123°26'0 0.0
2014-Aug-11 05:28N 48°26' W 123°26'0 0.0
2014-Aug-11 04:12N 48°26' W 123°26'0 0.0
2014-Aug-11 03:15N 48°26' W 123°26'0 0.0
2014-Aug-11 02:33N 48°26' W 123°26'0 0.0
2014-Aug-11 01:27N 48°26' W 123°26'0 0.0
2014-Aug-11 00:26N 48°26' W 123°26'0 0.0
2014-Aug-10 23:31N 48°26' W 123°26'0 0.0
2014-Aug-10 18:07N 48°26' W 123°26'0 0.0
2014-Aug-10 17:31N 48°26' W 123°26'0 0.0
2014-Aug-10 16:31N 48°26' W 123°26'  
Track history (hours):
 
Tides and Currents Weather Stations Pressure Air Temp Water Temp Dewpoint Dewpoint Depression Visibility Wind Speed Wind Dir Waves Ship Positions

Moose 62

Last reported at 2014-Aug-20 12:33 UTC. Time now 2014-Aug-20 12:40 UTC.
Position N 49°33' W 124°29'.

Length 33 m; draft 2.6 m.

Type: Military. MMSI: 316013412.

Date/timePositionNaut miles runAvg speedWind from/ knotsBaromVisibWave heightAir tempDewpointWater temp
2014-Aug-20 12:33N 49°33' W 124°29'8 7.9
2014-Aug-20 11:33N 49°35' W 124°41'14 5.7
2014-Aug-20 09:09N 49°47' W 124°30'16 9.9
2014-Aug-20 07:33N 49°37' W 124°11'1010.0
2014-Aug-20 06:32N 49°29' W 124°01'9 9.1
2014-Aug-20 05:32N 49°23' W 123°51'4 4.0
2014-Aug-20 04:33N 49°21' W 123°45'0 0.3
2014-Aug-20 03:33N 49°21' W 123°46'3 3.0
2014-Aug-20 02:33N 49°20' W 123°50'1 1.3
2014-Aug-20 01:32N 49°22' W 123°49'0 0.1
2014-Aug-20 00:15N 49°22' W 123°49'913.2
2014-Aug-19 23:33N 49°20' W 123°35'1211.6
2014-Aug-19 22:34N 49°24' W 123°18'8 7.0
2014-Aug-19 21:27N 49°24' W 123°30'0 0.0
2014-Aug-19 20:30N 49°24' W 123°30'0 0.0
2014-Aug-19 19:33N 49°24' W 123°30'0 0.0
2014-Aug-19 18:30N 49°24' W 123°30'7 6.3
2014-Aug-19 17:24N 49°28' W 123°22'3 3.0
2014-Aug-19 16:31N 49°26' W 123°24'2 1.7
2014-Aug-19 15:33N 49°26' W 123°22'5 4.7
2014-Aug-19 14:33N 49°28' W 123°16'9 8.6
2014-Aug-19 13:33N 49°20' W 123°20'9 9.2
2014-Aug-19 12:33N 49°21' W 123°34'1111.5
2014-Aug-19 11:33N 49°25' W 123°50'9 2.2
2014-Aug-19 07:15N 49°30' W 124°02'8 9.7
2014-Aug-19 06:25N 49°24' W 123°53'8 9.7
2014-Aug-19 05:33N 49°18' W 123°44'1110.9
2014-Aug-19 04:30N 49°11' W 123°31'1212.4
2014-Aug-19 03:33N 49°03' W 123°18'1211.8
2014-Aug-19 02:33N 48°55' W 123°05'9 8.7
2014-Aug-19 01:33N 48°46' W 123°01'1110.7
2014-Aug-19 00:33N 48°41' W 123°15'1110.8
2014-Aug-18 23:33N 48°30' W 123°11'10 9.7
2014-Aug-18 22:33N 48°22' W 123°18'7 6.5
2014-Aug-18 21:33N 48°25' W 123°27'1 1.3
2014-Aug-18 20:33N 48°26' W 123°26'0 0.0
2014-Aug-18 19:33N 48°26' W 123°26'0 0.0
2014-Aug-18 18:33N 48°26' W 123°26'0 0.0
2014-Aug-18 17:33N 48°26' W 123°26'0 0.0
2014-Aug-18 16:33N 48°26' W 123°26'0 0.0
2014-Aug-18 15:33N 48°26' W 123°26'0 0.0
2014-Aug-18 14:33N 48°26' W 123°26'0 0.0
2014-Aug-18 13:33N 48°26' W 123°26'0 0.0
2014-Aug-18 12:33N 48°26' W 123°26'0 0.0
2014-Aug-18 11:33N 48°26' W 123°26'0 0.0
2014-Aug-18 10:33N 48°26' W 123°26'0 0.0
2014-Aug-18 09:33N 48°26' W 123°26'0 0.0
2014-Aug-18 08:33N 48°26' W 123°26'0 0.0
2014-Aug-18 07:33N 48°26' W 123°26'0 0.0
2014-Aug-18 06:33N 48°26' W 123°26'0 0.0
2014-Aug-18 05:33N 48°26' W 123°26'0 0.0
2014-Aug-18 04:33N 48°26' W 123°26'0 0.0
2014-Aug-18 03:33N 48°26' W 123°26'0 0.0
2014-Aug-18 02:33N 48°26' W 123°26'0 0.0
2014-Aug-18 01:33N 48°26' W 123°26'0 0.0
2014-Aug-18 00:33N 48°26' W 123°26'0 0.0
2014-Aug-17 18:33N 48°26' W 123°26'0 0.0
2014-Aug-17 17:33N 48°26' W 123°26'0 0.0
2014-Aug-17 16:33N 48°26' W 123°26'0 0.0
2014-Aug-17 15:33N 48°26' W 123°26'0 0.0
2014-Aug-17 14:33N 48°26' W 123°26'0 0.0
2014-Aug-17 13:33N 48°26' W 123°26'0 0.0
2014-Aug-17 12:33N 48°26' W 123°26'0 0.0
2014-Aug-17 11:33N 48°26' W 123°26'0 0.0
2014-Aug-17 10:33N 48°26' W 123°26'0 0.0
2014-Aug-17 09:33N 48°26' W 123°26'0 0.0
2014-Aug-17 08:33N 48°26' W 123°26'0 0.0
2014-Aug-17 07:33N 48°26' W 123°26'0 0.0
2014-Aug-17 06:33N 48°26' W 123°26'0 0.0
2014-Aug-17 05:33N 48°26' W 123°26'0 0.0
2014-Aug-17 04:33N 48°26' W 123°26'0 0.0
2014-Aug-17 03:33N 48°26' W 123°26'0 0.0
2014-Aug-17 02:33N 48°26' W 123°26'0 0.0
2014-Aug-17 01:33N 48°26' W 123°26'0 0.0
2014-Aug-17 00:33N 48°26' W 123°26'0 0.0
2014-Aug-16 23:33N 48°26' W 123°26'0 0.0
2014-Aug-16 22:33N 48°26' W 123°26'0 0.0
2014-Aug-16 21:33N 48°26' W 123°26'0 0.0
2014-Aug-16 20:33N 48°26' W 123°26'0 0.0
2014-Aug-16 19:33N 48°26' W 123°26'0 0.0
2014-Aug-16 18:32N 48°26' W 123°26'0 0.0
2014-Aug-16 17:33N 48°26' W 123°26'0 0.0
2014-Aug-16 16:33N 48°26' W 123°26'0 0.0
2014-Aug-16 15:33N 48°26' W 123°26'0 0.0
2014-Aug-16 14:33N 48°26' W 123°26'0 0.0
2014-Aug-16 13:33N 48°26' W 123°26'0 0.0
2014-Aug-16 12:33N 48°26' W 123°26'0 0.0
2014-Aug-16 11:33N 48°26' W 123°26'0 0.0
2014-Aug-16 10:33N 48°26' W 123°26'0 0.0
2014-Aug-16 09:33N 48°26' W 123°26'0 0.0
2014-Aug-16 08:33N 48°26' W 123°26'0 0.0
2014-Aug-16 07:33N 48°26' W 123°26'0 0.0
2014-Aug-16 06:33N 48°26' W 123°26'0 0.0
2014-Aug-16 05:33N 48°26' W 123°26'0 0.0
2014-Aug-16 04:33N 48°26' W 123°26'0 0.0
2014-Aug-16 03:33N 48°26' W 123°26'0 0.0
2014-Aug-16 02:29N 48°26' W 123°26'0 0.0
2014-Aug-16 01:33N 48°26' W 123°26'0 0.0
2014-Aug-16 00:33N 48°26' W 123°26'0 0.0
2014-Aug-15 23:33N 48°26' W 123°26'0 0.0
2014-Aug-15 22:30N 48°26' W 123°26'0 0.0
2014-Aug-15 21:33N 48°26' W 123°26'0 0.0
2014-Aug-15 20:33N 48°26' W 123°26'0 0.0
2014-Aug-15 19:33N 48°26' W 123°26'0 0.0
2014-Aug-15 18:32N 48°26' W 123°26'0 0.0
2014-Aug-15 17:33N 48°26' W 123°26'0 0.0
2014-Aug-15 16:33N 48°26' W 123°26'0 0.0
2014-Aug-15 15:33N 48°26' W 123°26'0 0.0
2014-Aug-15 14:14N 48°26' W 123°26'0 0.0
2014-Aug-15 11:32N 48°26' W 123°26'0 0.0
2014-Aug-15 10:30N 48°26' W 123°26'0 0.0
2014-Aug-15 09:33N 48°26' W 123°26'0 0.0
2014-Aug-15 08:33N 48°26' W 123°26'0 0.0
2014-Aug-15 07:33N 48°26' W 123°26'0 0.0
2014-Aug-15 06:32N 48°26' W 123°26'0 0.0
2014-Aug-15 05:31N 48°26' W 123°26'0 0.0
2014-Aug-15 04:25N 48°26' W 123°26'0 0.0
2014-Aug-15 03:32N 48°26' W 123°26'0 0.0
2014-Aug-15 02:13N 48°26' W 123°26'0 0.0
2014-Aug-15 01:33N 48°26' W 123°26'0 0.0
2014-Aug-15 00:32N 48°26' W 123°26'0 0.0
2014-Aug-14 23:31N 48°26' W 123°26'0 0.0
2014-Aug-14 22:32N 48°26' W 123°26'0 0.0
2014-Aug-14 21:33N 48°26' W 123°26'0 0.0
2014-Aug-14 20:33N 48°26' W 123°26'0 0.0
2014-Aug-14 19:33N 48°26' W 123°26'0 0.0
2014-Aug-14 18:33N 48°26' W 123°26'0 0.0
2014-Aug-14 17:32N 48°26' W 123°26'0 0.0
2014-Aug-14 16:33N 48°26' W 123°26'0 0.0
2014-Aug-14 15:21N 48°26' W 123°26'0 0.0
2014-Aug-14 12:30N 48°26' W 123°26'0 0.0
2014-Aug-14 09:33N 48°26' W 123°26'0 0.0
2014-Aug-14 08:32N 48°26' W 123°26'0 0.0
2014-Aug-14 07:33N 48°26' W 123°26'0 0.0
2014-Aug-14 06:33N 48°26' W 123°26'0 0.0
2014-Aug-14 05:32N 48°26' W 123°26'0 0.0
2014-Aug-14 02:07N 48°26' W 123°26'0 0.0
2014-Aug-14 01:33N 48°26' W 123°26'0 0.0
2014-Aug-14 00:32N 48°26' W 123°26'0 0.0
2014-Aug-13 23:24N 48°26' W 123°26'0 0.0
2014-Aug-13 21:08N 48°26' W 123°26'1 1.3
2014-Aug-13 20:33N 48°25' W 123°27'1 0.9
2014-Aug-13 19:33N 48°26' W 123°27'1 0.5
2014-Aug-13 18:32N 48°26' W 123°26'0 0.0
2014-Aug-13 17:33N 48°26' W 123°26'0 0.0
2014-Aug-13 16:33N 48°26' W 123°26'0 0.0
2014-Aug-13 15:33N 48°26' W 123°26'0 0.0
2014-Aug-13 14:33N 48°26' W 123°26'0 0.0
2014-Aug-13 13:33N 48°26' W 123°26'0 0.0
2014-Aug-13 12:33N 48°26' W 123°26'0 0.0
2014-Aug-13 11:33N 48°26' W 123°26'0 0.0
2014-Aug-13 10:33N 48°26' W 123°26'0 0.0
2014-Aug-13 09:26N 48°26' W 123°26'0 0.0
2014-Aug-13 08:33N 48°26' W 123°26'0 0.0
2014-Aug-13 07:33N 48°26' W 123°26'0 0.0
2014-Aug-13 06:33N 48°26' W 123°26'0 0.0
2014-Aug-13 05:33N 48°26' W 123°26'0 0.0
2014-Aug-13 04:32N 48°26' W 123°26'0 0.0
2014-Aug-13 03:30N 48°26' W 123°26'0 0.0
2014-Aug-13 02:32N 48°26' W 123°26'0 0.0
2014-Aug-13 01:33N 48°26' W 123°26'0 0.0
2014-Aug-13 00:33N 48°26' W 123°26'0 0.0
2014-Aug-12 22:33N 48°26' W 123°26'0 0.0
2014-Aug-12 21:33N 48°26' W 123°26'0 0.0
2014-Aug-12 20:33N 48°26' W 123°26'0 0.0
2014-Aug-12 19:33N 48°26' W 123°26'0 0.0
2014-Aug-12 18:33N 48°26' W 123°26'0 0.0
2014-Aug-12 17:33N 48°26' W 123°26'0 0.0
2014-Aug-12 16:33N 48°26' W 123°26'0 0.0
2014-Aug-12 15:33N 48°26' W 123°26'0 0.0
2014-Aug-12 14:33N 48°26' W 123°26'0 0.0
2014-Aug-12 13:33N 48°26' W 123°26'0 0.0
2014-Aug-12 12:32N 48°26' W 123°26'0 0.0
2014-Aug-12 11:13N 48°26' W 123°26'0 0.1
2014-Aug-12 10:30N 48°26' W 123°26'0 0.0
2014-Aug-12 08:32N 48°26' W 123°26'0 0.0
2014-Aug-12 07:32N 48°26' W 123°26'0 0.0
2014-Aug-12 06:33N 48°26' W 123°26'0 0.0
2014-Aug-12 05:33N 48°26' W 123°26'0 0.0
2014-Aug-12 04:33N 48°26' W 123°26'0 0.0
2014-Aug-12 03:33N 48°26' W 123°26'0 0.0
2014-Aug-12 02:33N 48°26' W 123°26'0 0.0
2014-Aug-12 01:33N 48°26' W 123°26'0 0.0
2014-Aug-12 00:33N 48°26' W 123°26'0 0.0
2014-Aug-11 23:33N 48°26' W 123°26'0 0.0
2014-Aug-11 22:33N 48°26' W 123°26'1 0.6
2014-Aug-11 21:33N 48°26' W 123°27'2 2.0
2014-Aug-11 20:33N 48°24' W 123°27'1010.3
2014-Aug-11 19:33N 48°26' W 123°12'7 6.8
2014-Aug-11 18:33N 48°22' W 123°21'5 4.6
2014-Aug-11 17:33N 48°23' W 123°27'3 2.6
2014-Aug-11 16:31N 48°26' W 123°26'0 0.0
2014-Aug-11 15:28N 48°26' W 123°26'0 0.0
2014-Aug-11 14:31N 48°26' W 123°26'0 0.0
2014-Aug-11 13:31N 48°26' W 123°26'0 0.0
2014-Aug-11 12:28N 48°26' W 123°26'0 0.0
2014-Aug-11 11:31N 48°26' W 123°26'0 0.0
2014-Aug-11 10:29N 48°26' W 123°26'0 0.0
2014-Aug-11 09:32N 48°26' W 123°26'0 0.0
2014-Aug-11 08:32N 48°26' W 123°26'0 0.0
2014-Aug-11 07:32N 48°26' W 123°26'0 0.0
2014-Aug-11 05:28N 48°26' W 123°26'0 0.0
2014-Aug-11 04:12N 48°26' W 123°26'0 0.0
2014-Aug-11 03:15N 48°26' W 123°26'0 0.0
2014-Aug-11 02:33N 48°26' W 123°26'0 0.0
2014-Aug-11 01:27N 48°26' W 123°26'0 0.0
2014-Aug-11 00:26N 48°26' W 123°26'0 0.0
2014-Aug-10 23:31N 48°26' W 123°26'0 0.0
2014-Aug-10 18:07N 48°26' W 123°26'0 0.0
2014-Aug-10 17:31N 48°26' W 123°26'0 0.0
2014-Aug-10 16:31N 48°26' W 123°26'  

Dump ship's entire track history